createdAt,value
2022-11-23T00:01:31.437Z,79.70
2022-11-23T00:04:02.035Z,79.33
2022-11-23T00:06:29.112Z,79.54
2022-11-23T00:08:56.185Z,79.37
2022-11-23T00:11:24.222Z,79.32
2022-11-23T00:13:51.237Z,79.10
2022-11-23T00:16:29.689Z,79.06
2022-11-23T00:18:58.671Z,78.87
2022-11-23T00:21:28.701Z,79.15
2022-11-23T00:23:55.450Z,78.97
2022-11-23T00:26:22.557Z,78.70
2022-11-23T00:28:49.370Z,78.78
2022-11-23T00:31:18.338Z,79.02
2022-11-23T00:33:55.765Z,78.48
2022-11-23T00:36:24.104Z,78.79
2022-11-23T00:38:51.957Z,79.00
2022-11-23T00:41:21.986Z,79.23
2022-11-23T00:43:49.073Z,79.46
2022-11-23T00:46:19.815Z,79.33
2022-11-23T00:48:49.072Z,79.44
2022-11-23T00:51:21.756Z,79.73
2022-11-23T00:53:51.352Z,80.06
2022-11-23T00:56:18.606Z,80.00
2022-11-23T00:58:50.686Z,80.27
2022-11-23T01:01:19.819Z,80.00
2022-11-23T01:03:48.954Z,80.07
2022-11-23T01:06:18.689Z,80.18
2022-11-23T01:08:53.021Z,79.61
2022-11-23T01:11:20.162Z,79.43
2022-11-23T01:13:49.667Z,79.11
2022-11-23T01:16:24.248Z,78.80
2022-11-23T01:19:01.987Z,79.01
2022-11-23T01:21:30.057Z,78.99
2022-11-23T01:23:57.527Z,78.69
2022-11-23T01:26:25.035Z,78.88
2022-11-23T01:28:51.980Z,78.86
2022-11-23T01:31:24.372Z,78.73
2022-11-23T01:33:55.696Z,78.67
2022-11-23T01:36:24.827Z,79.04
2022-11-23T01:38:51.961Z,79.00
2022-11-23T01:41:25.793Z,79.17
2022-11-23T01:43:53.021Z,79.19
2022-11-23T01:46:20.451Z,79.19
2022-11-23T01:48:57.606Z,79.40
2022-11-23T01:51:29.159Z,79.17
2022-11-23T01:54:16.631Z,79.58
2022-11-23T01:56:47.946Z,79.26
2022-11-23T01:59:16.887Z,79.43
2022-11-23T02:01:44.568Z,79.69
2022-11-23T02:04:29.642Z,79.60
2022-11-23T02:06:57.346Z,79.70
2022-11-23T02:09:26.556Z,79.72
2022-11-23T02:11:53.187Z,79.38
2022-11-23T02:14:23.350Z,79.34
2022-11-23T02:16:54.265Z,79.29
2022-11-23T02:20:00.462Z,79.12
2022-11-23T02:22:46.051Z,78.78
2022-11-23T02:25:24.135Z,78.63
2022-11-23T02:27:53.686Z,78.84
2022-11-23T02:30:20.335Z,78.61
2022-11-23T02:32:46.945Z,78.43
2022-11-23T02:35:13.654Z,78.02
2022-11-23T02:37:43.532Z,78.42
2022-11-23T02:40:32.079Z,78.34
2022-11-23T02:42:59.860Z,78.50
2022-11-23T02:45:49.783Z,78.42
2022-11-23T02:48:16.981Z,78.23
2022-11-23T02:50:44.081Z,78.78
2022-11-23T02:53:10.883Z,78.83
2022-11-23T02:55:37.820Z,78.65
2022-11-23T02:58:05.858Z,78.83
2022-11-23T03:00:33.430Z,78.79
2022-11-23T03:03:01.748Z,78.39
2022-11-23T03:05:28.381Z,78.50
2022-11-23T03:07:55.150Z,78.32
2022-11-23T03:10:22.278Z,78.48
2022-11-23T03:12:54.430Z,78.30
2022-11-23T03:15:21.700Z,78.05
2022-11-23T03:17:48.472Z,78.48
2022-11-23T03:20:16.510Z,78.29
2022-11-23T03:22:46.347Z,78.24
2022-11-23T03:25:14.957Z,77.86
2022-11-23T03:27:47.900Z,77.88
2022-11-23T03:30:15.330Z,77.86
2022-11-23T03:32:42.790Z,77.84
2022-11-23T03:35:09.595Z,77.74
2022-11-23T03:37:45.720Z,77.62
2022-11-23T03:40:12.955Z,77.71
2022-11-23T03:43:07.640Z,77.59
2022-11-23T03:45:34.260Z,77.98
2022-11-23T03:48:00.824Z,78.16
2022-11-23T03:50:29.776Z,78.20
2022-11-23T03:52:57.145Z,78.49
2022-11-23T03:55:23.792Z,78.88
2022-11-23T03:57:56.461Z,79.12
2022-11-23T04:00:23.213Z,79.29
2022-11-23T04:02:49.841Z,79.69
2022-11-23T04:05:45.439Z,80.16
2022-11-23T04:08:37.981Z,80.49
2022-11-23T04:11:09.781Z,80.73
2022-11-23T04:13:38.589Z,81.21
2022-11-23T04:16:07.315Z,81.33
2022-11-23T04:18:34.243Z,81.58
2022-11-23T04:21:00.852Z,81.59
2022-11-23T04:23:28.309Z,82.07
2022-11-23T04:25:55.345Z,81.98
2022-11-23T04:28:23.312Z,82.11
2022-11-23T04:30:49.958Z,82.10
2022-11-23T04:33:17.432Z,81.98
2022-11-23T04:35:44.497Z,82.19
2022-11-23T04:38:11.140Z,82.30
2022-11-23T04:40:38.230Z,82.42
2022-11-23T04:43:06.776Z,82.50
2022-11-23T04:45:38.464Z,82.24
2022-11-23T04:48:08.135Z,82.31
2022-11-23T04:50:40.438Z,82.43
2022-11-23T04:53:09.021Z,82.50
2022-11-23T04:55:46.136Z,82.54
2022-11-23T04:58:13.192Z,82.44
2022-11-23T05:00:40.444Z,82.16
2022-11-23T05:03:08.065Z,82.06
2022-11-23T05:05:40.536Z,82.08
2022-11-23T05:08:08.944Z,82.18
2022-11-23T05:10:46.242Z,82.07
2022-11-23T05:13:13.506Z,82.17
2022-11-23T05:15:40.189Z,82.10
2022-11-23T05:18:07.242Z,82.03
2022-11-23T05:20:35.491Z,82.16
2022-11-23T05:23:04.528Z,82.19
2022-11-23T05:25:33.572Z,82.00
2022-11-23T05:28:11.381Z,81.77
2022-11-23T05:30:50.613Z,81.78
2022-11-23T05:33:17.688Z,81.60
2022-11-23T05:35:44.371Z,81.60
2022-11-23T05:38:11.087Z,81.40
2022-11-23T05:40:37.821Z,81.16
2022-11-23T05:43:06.553Z,81.32
2022-11-23T05:45:35.327Z,81.65
2022-11-23T05:48:03.253Z,81.36
2022-11-23T05:50:55.054Z,81.49
2022-11-23T05:53:30.388Z,81.55
2022-11-23T05:56:08.430Z,81.52
2022-11-23T05:58:44.548Z,81.92
2022-11-23T06:01:11.576Z,81.70
2022-11-23T06:03:46.289Z,81.56
2022-11-23T06:06:13.542Z,81.26
2022-11-23T06:08:46.634Z,81.82
2022-11-23T06:11:18.231Z,81.59
2022-11-23T06:13:49.677Z,81.76
2022-11-23T06:16:17.609Z,82.08
2022-11-23T06:18:57.787Z,82.26
2022-11-23T06:21:24.436Z,82.03
2022-11-23T06:23:51.675Z,81.82
2022-11-23T06:26:19.044Z,81.96
2022-11-23T06:28:45.889Z,81.79
2022-11-23T06:31:17.160Z,82.08
2022-11-23T06:33:43.820Z,81.58
2022-11-23T06:36:11.436Z,81.66
2022-11-23T06:38:44.312Z,81.72
2022-11-23T06:41:19.260Z,82.00
2022-11-23T06:43:47.948Z,81.65
2022-11-23T06:46:22.426Z,81.23
2022-11-23T06:48:50.143Z,80.83
2022-11-23T06:51:16.994Z,80.79
2022-11-23T06:53:45.065Z,80.62
2022-11-23T06:56:13.918Z,80.95
2022-11-23T06:58:40.827Z,80.99
2022-11-23T07:01:12.727Z,81.05
2022-11-23T07:03:48.560Z,81.08
2022-11-23T07:06:22.176Z,80.82
2022-11-23T07:08:54.795Z,81.19
2022-11-23T07:11:47.864Z,81.35
2022-11-23T07:14:16.505Z,81.03
2022-11-23T07:16:48.659Z,81.08
2022-11-23T07:19:15.569Z,80.81
2022-11-23T07:21:42.602Z,81.26
2022-11-23T07:24:09.355Z,81.44
2022-11-23T07:26:35.959Z,81.06
2022-11-23T07:29:04.284Z,80.94
2022-11-23T07:31:31.107Z,81.12
2022-11-23T07:33:57.707Z,81.05
2022-11-23T07:36:24.742Z,80.74
2022-11-23T07:38:51.313Z,80.61
2022-11-23T07:41:20.116Z,80.78
2022-11-23T07:44:03.287Z,80.64
2022-11-23T07:46:29.861Z,80.49
2022-11-23T07:49:01.291Z,80.36
2022-11-23T07:51:29.618Z,80.77
2022-11-23T07:53:56.397Z,80.29
2022-11-23T07:56:23.471Z,80.14
2022-11-23T07:58:50.488Z,80.16
2022-11-23T08:01:18.838Z,80.14
2022-11-23T08:03:46.491Z,80.37
2022-11-23T08:06:14.586Z,80.01
2022-11-23T08:08:42.357Z,80.30
2022-11-23T08:11:09.647Z,80.07
2022-11-23T08:13:37.321Z,79.97
2022-11-23T08:16:04.051Z,80.21
2022-11-23T08:18:30.692Z,79.86
2022-11-23T08:21:02.844Z,80.00
2022-11-23T08:23:29.931Z,80.22
2022-11-23T08:25:56.556Z,80.03
2022-11-23T08:28:23.191Z,79.83
2022-11-23T08:30:50.150Z,79.93
2022-11-23T08:33:17.330Z,79.84
2022-11-23T08:35:43.950Z,79.91
2022-11-23T08:38:11.463Z,80.32
2022-11-23T08:40:38.809Z,80.15
2022-11-23T08:43:06.304Z,80.21
2022-11-23T08:45:32.930Z,80.32
2022-11-23T08:48:01.116Z,79.94
2022-11-23T08:50:29.309Z,80.29
2022-11-23T08:52:57.233Z,80.11
2022-11-23T08:55:25.620Z,80.09
2022-11-23T08:57:56.030Z,79.76
2022-11-23T09:00:22.878Z,79.84
2022-11-23T09:02:49.607Z,79.85
2022-11-23T09:05:16.351Z,79.58
2022-11-23T09:07:43.072Z,79.83
2022-11-23T09:10:13.617Z,79.59
2022-11-23T09:12:43.653Z,79.67
2022-11-23T09:15:10.357Z,79.85
2022-11-23T09:17:37.058Z,79.78
2022-11-23T09:20:03.996Z,79.39
2022-11-23T09:22:31.791Z,79.67
2022-11-23T09:24:58.557Z,79.46
2022-11-23T09:27:25.582Z,79.54
2022-11-23T09:29:52.224Z,79.54
2022-11-23T09:32:18.846Z,79.66
2022-11-23T09:34:45.500Z,79.44
2022-11-23T09:37:13.102Z,79.48
2022-11-23T09:39:39.745Z,79.41
2022-11-23T09:42:24.712Z,79.36
2022-11-23T09:44:54.208Z,79.22
2022-11-23T09:47:51.593Z,79.39
2022-11-23T09:50:27.553Z,79.17
2022-11-23T09:52:54.413Z,79.44
2022-11-23T09:55:36.814Z,79.40
2022-11-23T09:58:05.943Z,78.93
2022-11-23T10:00:46.025Z,78.84
2022-11-23T10:03:16.109Z,78.59
2022-11-23T10:05:50.346Z,78.69
2022-11-23T10:08:52.082Z,78.48
2022-11-23T10:11:42.903Z,78.58
2022-11-23T10:14:39.462Z,78.09
2022-11-23T10:17:28.388Z,78.04
2022-11-23T10:20:19.310Z,78.19
2022-11-23T10:23:00.668Z,78.44
2022-11-23T10:25:46.398Z,78.23
2022-11-23T10:28:15.898Z,78.01
2022-11-23T10:30:43.265Z,77.65
2022-11-23T10:33:31.621Z,77.95
2022-11-23T10:35:58.436Z,77.95
2022-11-23T10:38:27.896Z,78.65
2022-11-23T10:41:08.547Z,78.11
2022-11-23T10:43:54.004Z,77.78
2022-11-23T10:46:31.726Z,77.87
2022-11-23T10:49:20.236Z,77.94
2022-11-23T10:52:27.874Z,77.95
2022-11-23T10:54:57.200Z,78.05
2022-11-23T10:57:44.649Z,78.41
2022-11-23T11:00:13.007Z,78.40
2022-11-23T11:02:42.407Z,78.41
2022-11-23T11:06:08.579Z,78.45
2022-11-23T11:08:31.858Z,78.42
2022-11-23T11:11:21.295Z,78.44
2022-11-23T11:13:49.120Z,78.66
2022-11-23T11:16:27.622Z,78.42
2022-11-23T11:18:54.348Z,78.68
2022-11-23T11:21:24.050Z,78.62
2022-11-23T11:24:03.155Z,78.60
2022-11-23T11:26:33.212Z,78.48
2022-11-23T11:29:05.517Z,78.40
2022-11-23T11:31:38.125Z,78.20
2022-11-23T11:34:16.250Z,78.37
2022-11-23T11:37:01.756Z,78.38
2022-11-23T11:39:35.508Z,78.72
2022-11-23T11:42:07.215Z,78.79
2022-11-23T11:44:38.697Z,78.93
2022-11-23T11:47:18.831Z,78.72
2022-11-23T11:49:49.170Z,79.05
2022-11-23T11:52:22.226Z,78.88
2022-11-23T11:55:15.253Z,78.74
2022-11-23T11:57:48.786Z,78.47
2022-11-23T12:00:20.365Z,78.28
2022-11-23T12:03:10.706Z,78.37
2022-11-23T12:05:49.030Z,78.30
2022-11-23T12:08:22.533Z,78.38
2022-11-23T12:10:55.004Z,78.53
2022-11-23T12:13:29.739Z,78.38
2022-11-23T12:16:16.329Z,78.11
2022-11-23T12:18:56.719Z,78.66
2022-11-23T12:21:56.492Z,78.82
2022-11-23T12:24:47.413Z,78.64
2022-11-23T12:27:59.200Z,78.87
2022-11-23T12:30:31.848Z,78.90
2022-11-23T12:33:01.365Z,78.77
2022-11-23T12:35:40.223Z,78.53
2022-11-23T12:38:38.090Z,78.81
2022-11-23T12:41:16.860Z,78.71
2022-11-23T12:44:04.323Z,78.59
2022-11-23T12:47:05.777Z,79.13
2022-11-23T12:49:39.312Z,79.08
2022-11-23T12:52:47.517Z,78.89
2022-11-23T12:55:19.905Z,78.62
2022-11-23T12:58:14.254Z,78.25
2022-11-23T13:00:49.878Z,78.21
2022-11-23T13:03:37.662Z,77.95
2022-11-23T13:06:19.754Z,78.54
2022-11-23T13:09:22.847Z,78.25
2022-11-23T13:12:23.453Z,78.22
2022-11-23T13:15:27.872Z,78.12
2022-11-23T13:18:37.348Z,78.50
2022-11-23T13:21:22.067Z,78.24
2022-11-23T13:23:48.943Z,78.50
2022-11-23T13:26:18.882Z,78.23
2022-11-23T13:28:47.603Z,78.16
2022-11-23T13:31:17.247Z,78.40
2022-11-23T13:33:46.265Z,78.85
2022-11-23T13:37:11.045Z,78.49
2022-11-23T13:39:45.244Z,78.50
2022-11-23T13:42:13.527Z,78.60
2022-11-23T13:44:40.143Z,78.71
2022-11-23T13:47:19.265Z,78.66
2022-11-23T13:50:07.129Z,78.54
2022-11-23T13:52:36.286Z,78.62
2022-11-23T13:55:27.727Z,78.53
2022-11-23T13:58:25.388Z,78.28
2022-11-23T14:00:57.345Z,78.20
2022-11-23T14:03:42.380Z,78.40
2022-11-23T14:06:27.847Z,78.58
2022-11-23T14:09:12.780Z,78.79
2022-11-23T14:12:08.626Z,78.69
2022-11-23T14:14:49.341Z,78.48
2022-11-23T14:17:34.262Z,78.59
2022-11-23T14:20:19.193Z,78.64
2022-11-23T14:23:13.478Z,79.17
2022-11-23T14:26:26.972Z,79.47
2022-11-23T14:29:12.276Z,79.17
2022-11-23T14:31:51.897Z,79.20
2022-11-23T14:34:41.310Z,79.28
2022-11-23T14:37:10.818Z,79.35
2022-11-23T14:40:14.835Z,79.27
2022-11-23T14:42:52.465Z,79.21
2022-11-23T14:45:21.740Z,79.17
2022-11-23T14:47:48.693Z,79.51
2022-11-23T14:50:21.391Z,79.34
2022-11-23T14:52:48.769Z,79.67
2022-11-23T14:55:21.548Z,79.96
2022-11-23T14:57:51.494Z,80.01
2022-11-23T15:00:29.149Z,79.11
2022-11-23T15:03:00.094Z,79.57
2022-11-23T15:05:33.270Z,79.82
2022-11-23T15:08:11.979Z,79.74
2022-11-23T15:10:38.605Z,80.00
2022-11-23T15:13:23.859Z,79.92
2022-11-23T15:15:55.856Z,80.14
2022-11-23T15:18:34.648Z,80.32
2022-11-23T15:21:27.318Z,80.38
2022-11-23T15:23:57.368Z,79.98
2022-11-23T15:26:48.619Z,80.23
2022-11-23T15:29:34.902Z,80.23
2022-11-23T15:32:30.667Z,80.16
2022-11-23T15:35:06.559Z,80.37
2022-11-23T15:37:41.175Z,80.07
2022-11-23T15:40:13.624Z,80.19
2022-11-23T15:42:40.878Z,80.12
2022-11-23T15:45:45.705Z,80.41
2022-11-23T15:48:17.671Z,80.32
2022-11-23T15:50:58.954Z,80.14
2022-11-23T15:53:31.839Z,80.47
2022-11-23T15:56:05.811Z,80.26
2022-11-23T15:58:35.142Z,80.34
2022-11-23T16:01:13.551Z,80.21
2022-11-23T16:03:47.479Z,80.57
2022-11-23T16:06:14.142Z,80.51
2022-11-23T16:08:41.258Z,80.51
2022-11-23T16:11:36.714Z,80.94
2022-11-23T16:14:20.889Z,80.86
2022-11-23T16:16:58.547Z,80.90
2022-11-23T16:19:29.502Z,81.04
2022-11-23T16:22:03.176Z,81.03
2022-11-23T16:24:32.135Z,80.98
2022-11-23T16:26:59.465Z,80.92
2022-11-23T16:29:30.543Z,80.93
2022-11-23T16:32:02.746Z,81.20
2022-11-23T16:34:29.491Z,81.21
2022-11-23T16:36:56.436Z,81.39
2022-11-23T16:39:24.125Z,81.33
2022-11-23T16:41:52.059Z,81.45
2022-11-23T16:44:19.505Z,81.09
2022-11-23T16:46:47.689Z,81.30
2022-11-23T16:49:20.457Z,81.14
2022-11-23T16:51:56.160Z,81.49
2022-11-23T16:54:25.057Z,81.72
2022-11-23T16:56:52.684Z,82.05
2022-11-23T16:59:20.015Z,82.07
2022-11-23T17:01:53.860Z,81.85
2022-11-23T17:04:24.148Z,81.70
2022-11-23T17:06:50.946Z,81.34
2022-11-23T17:09:17.577Z,81.43
2022-11-23T17:11:47.390Z,81.14
2022-11-23T17:14:18.961Z,80.97
2022-11-23T17:16:46.605Z,80.87
2022-11-23T17:19:18.066Z,80.79
2022-11-23T17:21:45.090Z,80.97
2022-11-23T17:24:12.866Z,81.16
2022-11-23T17:26:45.371Z,80.48
2022-11-23T17:29:19.467Z,80.76
2022-11-23T17:31:47.607Z,80.68
2022-11-23T17:34:15.296Z,80.62
2022-11-23T17:36:44.341Z,81.27
2022-11-23T17:39:24.573Z,81.43
2022-11-23T17:41:51.308Z,81.35
2022-11-23T17:44:20.510Z,81.48
2022-11-23T17:46:47.653Z,81.55
2022-11-23T17:49:17.982Z,81.29
2022-11-23T17:51:44.746Z,81.59
2022-11-23T17:54:11.518Z,81.67
2022-11-23T17:56:38.790Z,82.00
2022-11-23T17:59:06.693Z,81.80
2022-11-23T18:01:35.815Z,81.93
2022-11-23T18:06:51.136Z,81.75
2022-11-23T18:09:18.180Z,81.86
2022-11-23T18:11:44.790Z,82.01
2022-11-23T18:14:11.486Z,81.92
2022-11-23T18:16:38.060Z,81.76
2022-11-23T18:19:05.429Z,81.56
2022-11-23T18:21:32.040Z,81.27
2022-11-23T18:24:04.098Z,81.49
2022-11-23T18:26:31.737Z,81.64
2022-11-23T18:28:58.367Z,81.75
2022-11-23T18:31:24.997Z,81.70
2022-11-23T18:33:51.670Z,81.65
2022-11-23T18:36:18.368Z,81.58
2022-11-23T18:38:45.279Z,81.37
2022-11-23T18:41:16.677Z,81.52
2022-11-23T18:43:44.684Z,81.78
2022-11-23T18:46:12.868Z,81.49
2022-11-23T18:48:39.506Z,81.54
2022-11-23T18:51:11.677Z,81.69
2022-11-23T18:53:38.352Z,81.63
2022-11-23T18:56:06.017Z,81.49
2022-11-23T18:58:38.084Z,81.59
2022-11-23T19:01:13.299Z,82.25
2022-11-23T19:03:44.143Z,81.83
2022-11-23T19:06:13.643Z,82.28
2022-11-23T19:08:42.338Z,82.33
2022-11-23T19:11:17.556Z,82.10
2022-11-23T19:13:46.138Z,82.19
2022-11-23T19:16:16.587Z,82.19
2022-11-23T19:18:43.824Z,81.92
2022-11-23T19:21:19.125Z,81.99
2022-11-23T19:23:50.700Z,81.74
2022-11-23T19:26:18.406Z,81.89
2022-11-23T19:28:45.561Z,81.67
2022-11-23T19:31:29.338Z,81.49
2022-11-23T19:34:01.752Z,81.51
2022-11-23T19:36:30.847Z,81.61
2022-11-23T19:38:58.200Z,81.55
2022-11-23T19:41:29.777Z,81.41
2022-11-23T19:43:58.354Z,81.51
2022-11-23T19:46:25.371Z,81.38
2022-11-23T19:48:52.018Z,80.95
2022-11-23T19:51:19.997Z,81.22
2022-11-23T19:53:49.137Z,81.26
2022-11-23T19:56:22.032Z,81.52
2022-11-23T19:58:54.311Z,81.34
2022-11-23T20:01:22.593Z,81.45
2022-11-23T20:03:51.245Z,81.29
2022-11-23T20:06:21.625Z,81.27
2022-11-23T20:08:57.066Z,81.46
2022-11-23T20:11:24.573Z,80.99
2022-11-23T20:13:51.502Z,80.85
2022-11-23T20:16:20.042Z,80.91
2022-11-23T20:18:49.090Z,80.89
2022-11-23T20:21:19.655Z,80.56
2022-11-23T20:23:47.497Z,80.73
2022-11-23T20:26:18.613Z,80.65
2022-11-23T20:28:46.380Z,80.52
2022-11-23T20:31:20.344Z,80.11
2022-11-23T20:33:47.994Z,80.39
2022-11-23T20:36:25.820Z,79.91
2022-11-23T20:38:53.637Z,79.80
2022-11-23T20:41:26.711Z,80.15
2022-11-23T20:43:58.981Z,80.20
2022-11-23T20:46:46.034Z,80.45
2022-11-23T20:49:14.054Z,80.40
2022-11-23T20:51:40.614Z,80.25
2022-11-23T20:54:08.749Z,80.27
2022-11-23T20:56:38.752Z,80.60
2022-11-23T20:59:05.439Z,80.11
2022-11-23T21:01:32.529Z,80.10
2022-11-23T21:03:59.948Z,80.27
2022-11-23T21:06:27.759Z,80.09
2022-11-23T21:08:55.118Z,80.32
2022-11-23T21:11:45.922Z,80.48
2022-11-23T21:14:18.860Z,80.42
2022-11-23T21:16:55.002Z,80.27
2022-11-23T21:19:23.874Z,80.19
2022-11-23T21:21:50.450Z,79.98
2022-11-23T21:24:17.076Z,80.06
2022-11-23T21:26:43.785Z,80.11
2022-11-23T21:29:11.382Z,80.19
2022-11-23T21:31:39.497Z,80.24
2022-11-23T21:34:06.274Z,80.03
2022-11-23T21:36:39.086Z,80.01
2022-11-23T21:39:09.014Z,80.05
2022-11-23T21:41:36.371Z,79.80
2022-11-23T21:44:04.446Z,79.66
2022-11-23T21:46:31.478Z,79.55
2022-11-23T21:48:59.592Z,79.66
2022-11-23T21:51:29.749Z,79.65
2022-11-23T21:53:58.216Z,79.54
2022-11-23T21:56:25.039Z,79.58
2022-11-23T21:58:52.305Z,79.69
2022-11-23T22:01:21.621Z,79.84
2022-11-23T22:03:54.482Z,79.72
2022-11-23T22:06:22.356Z,79.62
2022-11-23T22:08:54.566Z,79.66
2022-11-23T22:11:29.546Z,79.64
2022-11-23T22:13:58.223Z,79.83
2022-11-23T22:16:30.108Z,79.80
2022-11-23T22:18:58.031Z,79.93
2022-11-23T22:21:29.190Z,79.68
2022-11-23T22:23:55.873Z,79.90
2022-11-23T22:26:22.642Z,79.76
2022-11-23T22:28:50.863Z,79.60
2022-11-23T22:31:23.208Z,79.68
2022-11-23T22:33:50.366Z,79.43
2022-11-23T22:36:22.202Z,79.67
2022-11-23T22:38:56.600Z,79.76
2022-11-23T22:41:28.034Z,79.54
2022-11-23T22:43:54.946Z,79.77
2022-11-23T22:46:23.588Z,79.89
2022-11-23T22:48:51.747Z,80.04
2022-11-23T22:51:23.298Z,80.21
2022-11-23T22:53:55.104Z,80.02
2022-11-23T22:56:22.303Z,80.27
2022-11-23T22:58:49.823Z,80.02
2022-11-23T23:01:19.059Z,79.92
2022-11-23T23:03:46.612Z,80.08
2022-11-23T23:06:18.918Z,80.20
2022-11-23T23:08:46.790Z,80.22
2022-11-23T23:11:14.691Z,80.14
2022-11-23T23:13:41.877Z,80.07
2022-11-23T23:16:11.824Z,80.18
2022-11-23T23:18:39.247Z,80.34
2022-11-23T23:21:10.919Z,80.31
2022-11-23T23:23:38.745Z,80.36
2022-11-23T23:26:06.416Z,80.26
2022-11-23T23:28:33.686Z,79.99
2022-11-23T23:31:02.600Z,80.25
2022-11-23T23:33:29.759Z,80.34
2022-11-23T23:35:56.739Z,80.28
2022-11-23T23:38:30.037Z,80.08
2022-11-23T23:40:56.760Z,80.16
2022-11-23T23:43:23.445Z,80.51
2022-11-23T23:45:51.617Z,80.42
2022-11-23T23:48:18.360Z,80.41
2022-11-23T23:50:44.964Z,80.35
2022-11-23T23:53:11.599Z,80.26
2022-11-23T23:55:38.443Z,80.24
2022-11-23T23:58:05.116Z,79.86
